sensor_id;sensor_type;location;lat;lon;timestamp;pressure;altitude;pressure_sealevel;temperature;humidity
64876;BME280;51369;49.862;9.908;2023-11-21T00:00:53;97689.53;;;9.74;86.02
64876;BME280;51369;49.862;9.908;2023-11-21T00:03:18;97693.03;;;9.76;86.00
64876;BME280;51369;49.862;9.908;2023-11-21T00:05:44;97693.97;;;9.75;85.97
64876;BME280;51369;49.862;9.908;2023-11-21T00:08:10;97691.28;;;9.75;86.55
64876;BME280;51369;49.862;9.908;2023-11-21T00:10:36;97687.63;;;9.76;86.30
64876;BME280;51369;49.862;9.908;2023-11-21T00:13:04;97691.28;;;9.75;86.35
64876;BME280;51369;49.862;9.908;2023-11-21T00:15:29;97693.97;;;9.75;86.21
64876;BME280;51369;49.862;9.908;2023-11-21T00:17:55;97684.06;;;9.76;86.69
64876;BME280;51369;49.862;9.908;2023-11-21T00:20:20;97682.25;;;9.76;87.34
64876;BME280;51369;49.862;9.908;2023-11-21T00:22:46;97699.28;;;9.77;86.94
64876;BME280;51369;49.862;9.908;2023-11-21T00:25:12;97693.91;;;9.77;87.62
64876;BME280;51369;49.862;9.908;2023-11-21T00:27:40;97692.94;;;9.78;87.48
64876;BME280;51369;49.862;9.908;2023-11-21T00:30:06;97697.41;;;9.79;87.46
64876;BME280;51369;49.862;9.908;2023-11-21T00:32:32;97692.88;;;9.79;87.05
64876;BME280;51369;49.862;9.908;2023-11-21T00:34:58;97700.97;;;9.79;86.95
64876;BME280;51369;49.862;9.908;2023-11-21T00:37:24;97703.56;;;9.81;87.45
64876;BME280;51369;49.862;9.908;2023-11-21T00:39:50;97694.63;;;9.81;87.59
64876;BME280;51369;49.862;9.908;2023-11-21T00:42:15;97704.44;;;9.82;87.32
64876;BME280;51369;49.862;9.908;2023-11-21T00:44:40;97705.31;;;9.82;87.33
64876;BME280;51369;49.862;9.908;2023-11-21T00:47:06;97709.75;;;9.83;87.79
64876;BME280;51369;49.862;9.908;2023-11-21T00:49:32;97709.84;;;9.82;87.65
64876;BME280;51369;49.862;9.908;2023-11-21T00:51:57;97707.94;;;9.84;86.82
64876;BME280;51369;49.862;9.908;2023-11-21T00:54:26;97713.41;;;9.82;87.63
64876;BME280;51369;49.862;9.908;2023-11-21T00:56:52;97710.72;;;9.82;87.17
64876;BME280;51369;49.862;9.908;2023-11-21T00:59:17;97708.91;;;9.83;87.70
64876;BME280;51369;49.862;9.908;2023-11-21T01:01:42;97704.44;;;9.82;86.99
64876;BME280;51369;49.862;9.908;2023-11-21T01:04:08;97700.81;;;9.83;87.23
64876;BME280;51369;49.862;9.908;2023-11-21T01:06:33;97701.75;;;9.82;87.68
64876;BME280;51369;49.862;9.908;2023-11-21T01:08:58;97697.22;;;9.82;87.60
64876;BME280;51369;49.862;9.908;2023-11-21T01:11:24;97688.28;;;9.82;87.45
64876;BME280;51369;49.862;9.908;2023-11-21T01:13:50;97697.31;;;9.81;87.61
64876;BME280;51369;49.862;9.908;2023-11-21T01:16:15;97698.19;;;9.81;87.90
64876;BME280;51369;49.862;9.908;2023-11-21T01:18:40;97705.31;;;9.82;87.92
64876;BME280;51369;49.862;9.908;2023-11-21T01:21:06;97701.75;;;9.82;87.67
64876;BME280;51369;49.862;9.908;2023-11-21T01:23:32;97699.94;;;9.82;87.48
64876;BME280;51369;49.862;9.908;2023-11-21T01:25:58;97691.84;;;9.82;87.75
64876;BME280;51369;49.862;9.908;2023-11-21T01:28:23;97691.84;;;9.82;87.17
64876;BME280;51369;49.862;9.908;2023-11-21T01:30:49;97688.28;;;9.82;87.40
64876;BME280;51369;49.862;9.908;2023-11-21T01:33:14;97685.59;;;9.82;87.05
64876;BME280;51369;49.862;9.908;2023-11-21T01:35:41;97704.44;;;9.82;87.58
64876;BME280;51369;49.862;9.908;2023-11-21T01:38:07;97709.84;;;9.82;88.03
64876;BME280;51369;49.862;9.908;2023-11-21T01:40:35;97709.84;;;9.82;88.07
64876;BME280;51369;49.862;9.908;2023-11-21T01:43:01;97703.50;;;9.83;87.73
64876;BME280;51369;49.862;9.908;2023-11-21T01:45:29;97708.03;;;9.82;87.36
64876;BME280;51369;49.862;9.908;2023-11-21T01:47:56;97708.09;;;9.81;88.21
64876;BME280;51369;49.862;9.908;2023-11-21T01:50:23;97708.91;;;9.83;88.38
64876;BME280;51369;49.862;9.908;2023-11-21T01:52:49;97702.72;;;9.81;88.36
64876;BME280;51369;49.862;9.908;2023-11-21T01:55:16;97704.53;;;9.80;87.97
64876;BME280;51369;49.862;9.908;2023-11-21T01:57:46;97697.47;;;9.77;88.05
64876;BME280;51369;49.862;9.908;2023-11-21T02:00:12;97693.03;;;9.76;87.51
64876;BME280;51369;49.862;9.908;2023-11-21T02:02:47;97700.41;;;9.73;87.83
64876;BME280;51369;49.862;9.908;2023-11-21T02:05:18;97711.25;;;9.71;87.57
64876;BME280;51369;49.862;9.908;2023-11-21T02:07:44;97706.81;;;9.70;87.36
64876;BME280;51369;49.862;9.908;2023-11-21T02:10:11;97711.41;;;9.68;87.32
64876;BME280;51369;49.862;9.908;2023-11-21T02:12:44;97707.91;;;9.66;87.34
64876;BME280;51369;49.862;9.908;2023-11-21T02:15:10;97713.38;;;9.65;87.96
64876;BME280;51369;49.862;9.908;2023-11-21T02:17:42;97712.50;;;9.64;87.78
64876;BME280;51369;49.862;9.908;2023-11-21T02:20:12;97708.06;;;9.63;87.95
64876;BME280;51369;49.862;9.908;2023-11-21T02:22:52;97710.75;;;9.63;87.76
64876;BME280;51369;49.862;9.908;2023-11-21T02:25:29;97716.22;;;9.62;87.99
64876;BME280;51369;49.862;9.908;2023-11-21T02:27:59;97718.84;;;9.63;87.71
64876;BME280;51369;49.862;9.908;2023-11-21T02:30:25;97705.44;;;9.62;87.57
64876;BME280;51369;49.862;9.908;2023-11-21T02:32:51;97710.91;;;9.60;87.75
64876;BME280;51369;49.862;9.908;2023-11-21T02:35:22;97709.16;;;9.59;87.88
64876;BME280;51369;49.862;9.908;2023-11-21T02:37:48;97707.41;;;9.58;87.36
64876;BME280;51369;49.862;9.908;2023-11-21T02:40:13;97710.13;;;9.58;87.85
64876;BME280;51369;49.862;9.908;2023-11-21T02:42:43;97710.19;;;9.57;87.04
64876;BME280;51369;49.862;9.908;2023-11-21T02:45:09;97712.00;;;9.56;87.17
64876;BME280;51369;49.862;9.908;2023-11-21T02:47:35;97712.97;;;9.55;87.41
64876;BME280;51369;49.862;9.908;2023-11-21T02:50:00;97700.59;;;9.51;87.68
64876;BME280;51369;49.862;9.908;2023-11-21T02:52:26;97699.00;;;9.47;87.37
64876;BME280;51369;49.862;9.908;2023-11-21T02:54:51;97701.84;;;9.44;87.52
64876;BME280;51369;49.862;9.908;2023-11-21T02:57:18;97698.50;;;9.39;87.46
64876;BME280;51369;49.862;9.908;2023-11-21T02:59:43;97709.41;;;9.36;87.13
64876;BME280;51369;49.862;9.908;2023-11-21T03:02:11;97698.00;;;9.31;86.98
64876;BME280;51369;49.862;9.908;2023-11-21T03:04:37;97708.03;;;9.27;87.18
64876;BME280;51369;49.862;9.908;2023-11-21T03:07:02;97709.13;;;9.23;86.50
64876;BME280;51369;49.862;9.908;2023-11-21T03:09:27;97707.47;;;9.21;87.23
64876;BME280;51369;49.862;9.908;2023-11-21T03:11:53;97712.19;;;9.16;86.89
64876;BME280;51369;49.862;9.908;2023-11-21T03:14:20;97709.78;;;9.09;86.99
64876;BME280;51369;49.862;9.908;2023-11-21T03:16:45;97709.06;;;9.06;86.60
64876;BME280;51369;49.862;9.908;2023-11-21T03:19:11;97711.03;;;9.02;87.20
64876;BME280;51369;49.862;9.908;2023-11-21T03:21:36;97717.50;;;8.98;86.88
64876;BME280;51369;49.862;9.908;2023-11-21T03:24:02;97711.31;;;8.96;87.19
64876;BME280;51369;49.862;9.908;2023-11-21T03:26:28;97717.78;;;8.92;87.24
64876;BME280;51369;49.862;9.908;2023-11-21T03:28:55;97717.84;;;8.91;86.81
64876;BME280;51369;49.862;9.908;2023-11-21T03:31:20;97721.56;;;8.88;86.81
64876;BME280;51369;49.862;9.908;2023-11-21T03:33:46;97722.50;;;8.87;87.17
64876;BME280;51369;49.862;9.908;2023-11-21T03:36:12;97717.25;;;8.84;87.14
64876;BME280;51369;49.862;9.908;2023-11-21T03:38:38;97715.59;;;8.81;87.90
64876;BME280;51369;49.862;9.908;2023-11-21T03:41:04;97717.41;;;8.81;87.92
64876;BME280;51369;49.862;9.908;2023-11-21T03:43:30;97713.84;;;8.80;87.94
64876;BME280;51369;49.862;9.908;2023-11-21T03:45:55;97720.09;;;8.81;88.47
64876;BME280;51369;49.862;9.908;2023-11-21T03:48:20;97721.78;;;8.84;87.91
64876;BME280;51369;49.862;9.908;2023-11-21T03:50:46;97712.81;;;8.83;88.33
64876;BME280;51369;49.862;9.908;2023-11-21T03:53:12;97713.78;;;8.82;88.22
64876;BME280;51369;49.862;9.908;2023-11-21T03:55:38;97722.72;;;8.82;88.43
64876;BME280;51369;49.862;9.908;2023-11-21T03:58:03;97720.91;;;8.83;88.25
64876;BME280;51369;49.862;9.908;2023-11-21T04:00:28;97718.22;;;8.83;89.02
64876;BME280;51369;49.862;9.908;2023-11-21T04:02:54;97721.78;;;8.84;88.93
64876;BME280;51369;49.862;9.908;2023-11-21T04:05:20;97720.91;;;8.83;88.79
64876;BME280;51369;49.862;9.908;2023-11-21T04:07:46;97720.81;;;8.85;88.95
64876;BME280;51369;49.862;9.908;2023-11-21T04:10:12;97724.41;;;8.85;88.79
64876;BME280;51369;49.862;9.908;2023-11-21T04:12:38;97727.09;;;8.85;88.98
64876;BME280;51369;49.862;9.908;2023-11-21T04:15:04;97727.09;;;8.85;88.80
64876;BME280;51369;49.862;9.908;2023-11-21T04:17:29;97731.59;;;8.85;89.05
64876;BME280;51369;49.862;9.908;2023-11-21T04:19:54;97728.91;;;8.85;88.95
64876;BME280;51369;49.862;9.908;2023-11-21T04:22:20;97736.97;;;8.85;89.08
64876;BME280;51369;49.862;9.908;2023-11-21T04:24:45;97736.91;;;8.86;89.16
64876;BME280;51369;49.862;9.908;2023-11-21T04:27:11;97739.59;;;8.86;89.18
64876;BME280;51369;49.862;9.908;2023-11-21T04:29:36;97746.72;;;8.87;89.03
64876;BME280;51369;49.862;9.908;2023-11-21T04:32:01;97737.72;;;8.88;89.13
64876;BME280;51369;49.862;9.908;2023-11-21T04:34:28;97740.41;;;8.88;89.37
64876;BME280;51369;49.862;9.908;2023-11-21T04:36:56;97739.47;;;8.89;88.95
64876;BME280;51369;49.862;9.908;2023-11-21T04:39:22;97743.91;;;8.90;89.41
64876;BME280;51369;49.862;9.908;2023-11-21T04:41:47;97742.09;;;8.91;89.07
64876;BME280;51369;49.862;9.908;2023-11-21T04:44:12;97742.00;;;8.92;88.60
64876;BME280;51369;49.862;9.908;2023-11-21T04:46:38;97744.69;;;8.92;88.81
64876;BME280;51369;49.862;9.908;2023-11-21T04:49:03;97749.22;;;8.92;89.05
64876;BME280;51369;49.862;9.908;2023-11-21T04:51:28;97750.97;;;8.93;89.15
64876;BME280;51369;49.862;9.908;2023-11-21T04:53:54;97743.81;;;8.92;89.44
64876;BME280;51369;49.862;9.908;2023-11-21T04:56:19;97750.16;;;8.91;88.94
64876;BME280;51369;49.862;9.908;2023-11-21T04:58:45;97762.75;;;8.90;88.72
64876;BME280;51369;49.862;9.908;2023-11-21T05:01:10;97761.94;;;8.88;89.19
64876;BME280;51369;49.862;9.908;2023-11-21T05:03:36;97767.25;;;8.90;88.94
64876;BME280;51369;49.862;9.908;2023-11-21T05:06:03;97772.56;;;8.91;89.08
64876;BME280;51369;49.862;9.908;2023-11-21T05:08:30;97771.56;;;8.94;89.59
64876;BME280;51369;49.862;9.908;2023-11-21T05:10:56;97771.47;;;8.95;89.54
64876;BME280;51369;49.862;9.908;2023-11-21T05:13:21;97770.47;;;8.98;89.94
64876;BME280;51369;49.862;9.908;2023-11-21T05:15:47;97768.66;;;8.98;89.92
64876;BME280;51369;49.862;9.908;2023-11-21T05:18:12;97773.09;;;8.99;89.68
64876;BME280;51369;49.862;9.908;2023-11-21T05:20:41;97770.31;;;9.01;89.60
64876;BME280;51369;49.862;9.908;2023-11-21T05:23:07;97772.06;;;9.02;89.69
64876;BME280;51369;49.862;9.908;2023-11-21T05:25:33;97770.25;;;9.02;89.47
64876;BME280;51369;49.862;9.908;2023-11-21T05:27:59;97771.94;;;9.05;89.95
64876;BME280;51369;49.862;9.908;2023-11-21T05:30:26;97777.25;;;9.06;89.28
64876;BME280;51369;49.862;9.908;2023-11-21T05:32:52;97787.94;;;9.08;89.80
64876;BME280;51369;49.862;9.908;2023-11-21T05:35:18;97781.69;;;9.07;89.86
64876;BME280;51369;49.862;9.908;2023-11-21T05:37:44;97777.19;;;9.08;89.61
64876;BME280;51369;49.862;9.908;2023-11-21T05:40:10;97780.69;;;9.10;89.54
64876;BME280;51369;49.862;9.908;2023-11-21T05:42:36;97788.59;;;9.13;90.05
64876;BME280;51369;49.862;9.908;2023-11-21T05:45:03;97793.94;;;9.14;90.13
64876;BME280;51369;49.862;9.908;2023-11-21T05:47:36;97784.91;;;9.16;90.43
64876;BME280;51369;49.862;9.908;2023-11-21T05:50:03;97795.59;;;9.17;89.81
64876;BME280;51369;49.862;9.908;2023-11-21T05:52:29;97794.59;;;9.20;89.48
64876;BME280;51369;49.862;9.908;2023-11-21T05:54:55;97801.88;;;9.18;89.92
64876;BME280;51369;49.862;9.908;2023-11-21T05:57:20;97798.28;;;9.17;89.85
64876;BME280;51369;49.862;9.908;2023-11-21T05:59:46;97800.13;;;9.17;89.79
64876;BME280;51369;49.862;9.908;2023-11-21T06:02:11;97801.00;;;9.17;89.50
64876;BME280;51369;49.862;9.908;2023-11-21T06:04:37;97808.19;;;9.17;88.87
64876;BME280;51369;49.862;9.908;2023-11-21T06:07:02;97816.34;;;9.15;89.14
64876;BME280;51369;49.862;9.908;2023-11-21T06:09:28;97816.41;;;9.13;88.89
64876;BME280;51369;49.862;9.908;2023-11-21T06:11:53;97821.72;;;9.15;88.61
64876;BME280;51369;49.862;9.908;2023-11-21T06:14:18;97821.81;;;9.13;89.29
64876;BME280;51369;49.862;9.908;2023-11-21T06:16:44;97825.38;;;9.14;89.28
64876;BME280;51369;49.862;9.908;2023-11-21T06:19:10;97827.13;;;9.15;89.65
64876;BME280;51369;49.862;9.908;2023-11-21T06:21:36;97837.00;;;9.14;89.39
64876;BME280;51369;49.862;9.908;2023-11-21T06:24:01;97834.25;;;9.16;89.62
64876;BME280;51369;49.862;9.908;2023-11-21T06:26:27;97836.88;;;9.18;88.96
64876;BME280;51369;49.862;9.908;2023-11-21T06:28:53;97837.69;;;9.20;89.15
64876;BME280;51369;49.862;9.908;2023-11-21T06:31:18;97840.38;;;9.20;89.22
64876;BME280;51369;49.862;9.908;2023-11-21T06:33:44;97840.38;;;9.20;88.82
64876;BME280;51369;49.862;9.908;2023-11-21T06:36:09;97844.88;;;9.19;89.52
64876;BME280;51369;49.862;9.908;2023-11-21T06:38:37;97852.09;;;9.19;89.08
64876;BME280;51369;49.862;9.908;2023-11-21T06:41:02;97852.97;;;9.19;89.21
64876;BME280;51369;49.862;9.908;2023-11-21T06:43:29;97845.75;;;9.20;89.07
64876;BME280;51369;49.862;9.908;2023-11-21T06:45:56;97853.84;;;9.20;89.45
64876;BME280;51369;49.862;9.908;2023-11-21T06:48:22;97856.41;;;9.23;89.71
64876;BME280;51369;49.862;9.908;2023-11-21T06:50:47;97866.16;;;9.25;90.12
64876;BME280;51369;49.862;9.908;2023-11-21T06:53:12;97865.22;;;9.26;89.94
64876;BME280;51369;49.862;9.908;2023-11-21T06:55:38;97869.59;;;9.29;89.64
64876;BME280;51369;49.862;9.908;2023-11-21T06:58:04;97872.13;;;9.32;89.74
64876;BME280;51369;49.862;9.908;2023-11-21T07:00:30;97878.41;;;9.32;90.07
64876;BME280;51369;49.862;9.908;2023-11-21T07:02:56;97881.03;;;9.34;89.77
64876;BME280;51369;49.862;9.908;2023-11-21T07:05:22;97886.28;;;9.37;90.14
64876;BME280;51369;49.862;9.908;2023-11-21T07:07:48;97892.47;;;9.39;89.45
64876;BME280;51369;49.862;9.908;2023-11-21T07:10:14;97901.28;;;9.42;90.06
64876;BME280;51369;49.862;9.908;2023-11-21T07:12:40;97900.28;;;9.45;90.20
64876;BME280;51369;49.862;9.908;2023-11-21T07:15:06;97899.31;;;9.46;90.08
64876;BME280;51369;49.862;9.908;2023-11-21T07:17:35;97909.09;;;9.49;89.59
64876;BME280;51369;49.862;9.908;2023-11-21T07:20:02;97910.78;;;9.51;89.52
64876;BME280;51369;49.862;9.908;2023-11-21T07:22:28;97899.91;;;9.53;90.09
64876;BME280;51369;49.862;9.908;2023-11-21T07:24:54;97904.38;;;9.54;89.30
64876;BME280;51369;49.862;9.908;2023-11-21T07:27:22;97905.16;;;9.56;89.38
64876;BME280;51369;49.862;9.908;2023-11-21T07:29:48;97909.63;;;9.57;89.38
64876;BME280;51369;49.862;9.908;2023-11-21T07:32:15;97906.84;;;9.58;89.93
64876;BME280;51369;49.862;9.908;2023-11-21T07:34:41;97910.34;;;9.60;89.78
64876;BME280;51369;49.862;9.908;2023-11-21T07:37:07;97920.97;;;9.63;89.37
64876;BME280;51369;49.862;9.908;2023-11-21T07:39:34;97919.97;;;9.66;89.75
64876;BME280;51369;49.862;9.908;2023-11-21T07:42:00;97923.47;;;9.68;89.40
64876;BME280;51369;49.862;9.908;2023-11-21T07:44:26;97928.72;;;9.71;89.13
64876;BME280;51369;49.862;9.908;2023-11-21T07:46:51;97933.16;;;9.72;90.14
64876;BME280;51369;49.862;9.908;2023-11-21T07:49:17;97929.44;;;9.74;89.39
64876;BME280;51369;49.862;9.908;2023-11-21T07:51:45;97933.91;;;9.75;89.22
64876;BME280;51369;49.862;9.908;2023-11-21T07:54:11;97939.16;;;9.78;89.91
64876;BME280;51369;49.862;9.908;2023-11-21T07:56:37;97944.41;;;9.82;89.40
64876;BME280;51369;49.862;9.908;2023-11-21T07:59:02;97942.56;;;9.82;89.98
64876;BME280;51369;49.862;9.908;2023-11-21T08:01:27;97944.31;;;9.83;89.53
64876;BME280;51369;49.862;9.908;2023-11-21T08:03:54;97946.00;;;9.86;89.47
64876;BME280;51369;49.862;9.908;2023-11-21T08:06:23;97955.78;;;9.88;89.63
64876;BME280;51369;49.862;9.908;2023-11-21T08:08:49;97956.56;;;9.90;89.40
64876;BME280;51369;49.862;9.908;2023-11-21T08:11:14;97967.28;;;9.92;88.93
64876;BME280;51369;49.862;9.908;2023-11-21T08:13:40;97957.31;;;9.94;88.54
64876;BME280;51369;49.862;9.908;2023-11-21T08:16:05;97953.66;;;9.95;88.46
64876;BME280;51369;49.862;9.908;2023-11-21T08:18:32;97973.34;;;9.97;89.41
64876;BME280;51369;49.862;9.908;2023-11-21T08:20:57;97976.84;;;9.99;89.57
64876;BME280;51369;49.862;9.908;2023-11-21T08:23:23;97976.84;;;9.99;88.60
64876;BME280;51369;49.862;9.908;2023-11-21T08:25:52;97975.91;;;10.00;88.80
64876;BME280;51369;49.862;9.908;2023-11-21T08:28:18;97980.34;;;10.01;88.58
64876;BME280;51369;49.862;9.908;2023-11-21T08:30:43;97975.75;;;10.03;88.52
64876;BME280;51369;49.862;9.908;2023-11-21T08:33:09;97979.25;;;10.05;89.10
64876;BME280;51369;49.862;9.908;2023-11-21T08:35:36;97975.53;;;10.07;89.07
64876;BME280;51369;49.862;9.908;2023-11-21T08:38:02;97971.81;;;10.10;89.09
64876;BME280;51369;49.862;9.908;2023-11-21T08:40:28;97982.41;;;10.15;88.50
64876;BME280;51369;49.862;9.908;2023-11-21T08:42:54;97981.44;;;10.16;89.14
64876;BME280;51369;49.862;9.908;2023-11-21T08:45:21;97984.00;;;10.19;89.46
64876;BME280;51369;49.862;9.908;2023-11-21T08:47:47;97980.31;;;10.21;89.19
64876;BME280;51369;49.862;9.908;2023-11-21T08:50:13;97981.91;;;10.25;89.29
64876;BME280;51369;49.862;9.908;2023-11-21T08:52:40;97984.31;;;10.31;88.44
64876;BME280;51369;49.862;9.908;2023-11-21T08:55:06;97987.81;;;10.33;88.92
64876;BME280;51369;49.862;9.908;2023-11-21T08:57:38;97989.34;;;10.39;88.80
64876;BME280;51369;49.862;9.908;2023-11-21T09:00:04;97996.31;;;10.43;88.53
64876;BME280;51369;49.862;9.908;2023-11-21T09:02:33;97988.94;;;10.47;88.99
64876;BME280;51369;49.862;9.908;2023-11-21T09:05:00;97995.06;;;10.50;88.18
64876;BME280;51369;49.862;9.908;2023-11-21T09:07:28;97993.19;;;10.52;87.85
64876;BME280;51369;49.862;9.908;2023-11-21T09:09:53;97993.97;;;10.54;86.60
64876;BME280;51369;49.862;9.908;2023-11-21T09:12:20;97997.63;;;10.53;86.53
64876;BME280;51369;49.862;9.908;2023-11-21T09:14:46;98007.41;;;10.56;86.95
64876;BME280;51369;49.862;9.908;2023-11-21T09:17:12;98002.81;;;10.58;86.86
64876;BME280;51369;49.862;9.908;2023-11-21T09:19:37;98015.19;;;10.62;86.50
64876;BME280;51369;49.862;9.908;2023-11-21T09:22:03;98016.81;;;10.66;86.44
64876;BME280;51369;49.862;9.908;2023-11-21T09:24:30;98017.53;;;10.69;86.42
64876;BME280;51369;49.862;9.908;2023-11-21T09:26:56;98020.00;;;10.74;86.90
64876;BME280;51369;49.862;9.908;2023-11-21T09:29:21;98018.81;;;10.80;86.34
64876;BME280;51369;49.862;9.908;2023-11-21T09:31:47;98019.47;;;10.85;86.96
64876;BME280;51369;49.862;9.908;2023-11-21T09:34:13;98029.19;;;10.89;85.95
64876;BME280;51369;49.862;9.908;2023-11-21T09:36:40;98028.16;;;10.91;85.20
64876;BME280;51369;49.862;9.908;2023-11-21T09:39:06;98036.09;;;10.94;84.73
64876;BME280;51369;49.862;9.908;2023-11-21T09:44:18;98041.13;;;11.02;84.57
64876;BME280;51369;49.862;9.908;2023-11-21T09:46:47;98050.75;;;11.07;84.51
64876;BME280;51369;49.862;9.908;2023-11-21T09:49:14;98056.81;;;11.13;84.49
64876;BME280;51369;49.862;9.908;2023-11-21T09:51:43;98051.31;;;11.14;84.41
64876;BME280;51369;49.862;9.908;2023-11-21T09:54:10;98060.16;;;11.18;84.22
64876;BME280;51369;49.862;9.908;2023-11-21T09:56:39;98051.00;;;11.20;83.81
64876;BME280;51369;49.862;9.908;2023-11-21T09:59:06;98053.47;;;11.25;83.50
64876;BME280;51369;49.862;9.908;2023-11-21T10:01:36;98053.25;;;11.29;83.64
64876;BME280;51369;49.862;9.908;2023-11-21T10:04:02;98054.75;;;11.35;83.50
64876;BME280;51369;49.862;9.908;2023-11-21T10:06:30;98048.41;;;11.36;83.62
64876;BME280;51369;49.862;9.908;2023-11-21T10:08:56;98060.88;;;11.38;83.27
64876;BME280;51369;49.862;9.908;2023-11-21T10:11:25;98058.91;;;11.42;83.49
64876;BME280;51369;49.862;9.908;2023-11-21T10:13:55;98056.84;;;11.47;83.39
64876;BME280;51369;49.862;9.908;2023-11-21T10:16:25;98067.41;;;11.52;82.38
64876;BME280;51369;49.862;9.908;2023-11-21T10:18:53;98061.84;;;11.55;81.70
64876;BME280;51369;49.862;9.908;2023-11-21T10:21:21;98054.47;;;11.58;81.70
64876;BME280;51369;49.862;9.908;2023-11-21T10:23:47;98052.63;;;11.59;80.72
64876;BME280;51369;49.862;9.908;2023-11-21T10:26:12;98054.47;;;11.58;80.35
64876;BME280;51369;49.862;9.908;2023-11-21T10:28:57;98060.81;;;11.57;81.34
64876;BME280;51369;49.862;9.908;2023-11-21T10:31:24;98050.66;;;11.62;81.10
64876;BME280;51369;49.862;9.908;2023-11-21T10:33:50;98053.34;;;11.62;80.90
64876;BME280;51369;49.862;9.908;2023-11-21T10:36:26;98058.75;;;11.62;80.10
64876;BME280;51369;49.862;9.908;2023-11-21T10:38:52;98050.47;;;11.65;80.80
64876;BME280;51369;49.862;9.908;2023-11-21T10:41:18;98051.34;;;11.66;79.78
64876;BME280;51369;49.862;9.908;2023-11-21T10:43:44;98054.94;;;11.66;79.07
64876;BME280;51369;49.862;9.908;2023-11-21T10:46:10;98058.44;;;11.68;79.76
64876;BME280;51369;49.862;9.908;2023-11-21T10:48:35;98053.91;;;11.69;79.96
64876;BME280;51369;49.862;9.908;2023-11-21T10:51:06;98060.19;;;11.69;78.78
64876;BME280;51369;49.862;9.908;2023-11-21T10:53:33;98063.59;;;11.73;79.54
64876;BME280;51369;49.862;9.908;2023-11-21T10:56:05;98061.69;;;11.75;78.90
64876;BME280;51369;49.862;9.908;2023-11-21T10:58:32;98065.16;;;11.79;78.66
64876;BME280;51369;49.862;9.908;2023-11-21T11:00:59;98065.94;;;11.81;78.78
64876;BME280;51369;49.862;9.908;2023-11-21T11:03:25;98067.63;;;11.83;79.14
64876;BME280;51369;49.862;9.908;2023-11-21T11:05:52;98067.53;;;11.85;79.05
64876;BME280;51369;49.862;9.908;2023-11-21T11:08:19;98064.66;;;11.88;78.20
64876;BME280;51369;49.862;9.908;2023-11-21T11:10:50;98060.13;;;11.88;78.13
64876;BME280;51369;49.862;9.908;2023-11-21T11:13:16;98063.63;;;11.90;77.46
64876;BME280;51369;49.862;9.908;2023-11-21T11:15:42;98053.53;;;11.94;77.17
64876;BME280;51369;49.862;9.908;2023-11-21T11:18:08;98065.06;;;11.97;77.53
64876;BME280;51369;49.862;9.908;2023-11-21T11:20:36;98069.34;;;12.01;77.74
64876;BME280;51369;49.862;9.908;2023-11-21T11:26:10;98066.16;;;12.11;77.01
64876;BME280;51369;49.862;9.908;2023-11-21T11:34:33;98072.28;;;12.30;76.27
64876;BME280;51369;49.862;9.908;2023-11-21T11:37:01;98072.13;;;12.33;76.12
64876;BME280;51369;49.862;9.908;2023-11-21T11:39:34;98072.03;;;12.34;75.50
64876;BME280;51369;49.862;9.908;2023-11-21T11:42:03;98074.66;;;12.36;75.22
64876;BME280;51369;49.862;9.908;2023-11-21T11:47:27;98073.69;;;12.37;74.92
64876;BME280;51369;49.862;9.908;2023-11-21T11:50:04;98076.16;;;12.42;75.46
64876;BME280;51369;49.862;9.908;2023-11-21T11:55:09;98076.06;;;12.43;75.74
64876;BME280;51369;49.862;9.908;2023-11-21T11:57:35;98083.31;;;12.43;75.31
64876;BME280;51369;49.862;9.908;2023-11-21T12:02:38;98086.53;;;12.33;74.71
64876;BME280;51369;49.862;9.908;2023-11-21T12:05:11;98088.69;;;12.27;74.57
64876;BME280;51369;49.862;9.908;2023-11-21T12:07:52;98084.47;;;12.21;75.11
64876;BME280;51369;49.862;9.908;2023-11-21T12:10:20;98093.72;;;12.17;74.96
64876;BME280;51369;49.862;9.908;2023-11-21T12:12:51;98094.88;;;12.13;75.21
64876;BME280;51369;49.862;9.908;2023-11-21T12:15:20;98101.25;;;12.12;75.52
64876;BME280;51369;49.862;9.908;2023-11-21T12:17:46;98083.25;;;12.11;74.61
64876;BME280;51369;49.862;9.908;2023-11-21T12:20:13;98082.19;;;12.14;75.45
64876;BME280;51369;49.862;9.908;2023-11-21T12:22:46;98081.94;;;12.18;74.27
64876;BME280;51369;49.862;9.908;2023-11-21T12:25:23;98086.22;;;12.22;74.30
64876;BME280;51369;49.862;9.908;2023-11-21T12:27:51;98093.16;;;12.28;73.40
64876;BME280;51369;49.862;9.908;2023-11-21T12:30:21;98090.44;;;12.28;73.24
64876;BME280;51369;49.862;9.908;2023-11-21T12:32:49;98097.53;;;12.30;73.27
64876;BME280;51369;49.862;9.908;2023-11-21T12:35:16;98092.91;;;12.32;72.42
64876;BME280;51369;49.862;9.908;2023-11-21T12:37:45;98096.22;;;12.37;73.10
64876;BME280;51369;49.862;9.908;2023-11-21T12:40:12;98096.84;;;12.43;72.13
64876;BME280;51369;49.862;9.908;2023-11-21T12:42:41;98098.28;;;12.50;72.64
64876;BME280;51369;49.862;9.908;2023-11-21T12:47:50;98099.25;;;12.64;72.75
64876;BME280;51369;49.862;9.908;2023-11-21T12:50:19;98098.03;;;12.70;72.74
64876;BME280;51369;49.862;9.908;2023-11-21T12:52:51;98106.00;;;12.73;71.90
64876;BME280;51369;49.862;9.908;2023-11-21T12:55:20;98112.22;;;12.75;71.80
64876;BME280;51369;49.862;9.908;2023-11-21T12:57:51;98106.78;;;12.75;72.83
64876;BME280;51369;49.862;9.908;2023-11-21T13:00:18;98101.38;;;12.75;71.54
64876;BME280;51369;49.862;9.908;2023-11-21T13:02:55;98108.72;;;12.73;71.26
64876;BME280;51369;49.862;9.908;2023-11-21T13:05:30;98113.59;;;12.66;71.19
64876;BME280;51369;49.862;9.908;2023-11-21T13:07:57;98115.50;;;12.64;71.11
64876;BME280;51369;49.862;9.908;2023-11-21T13:10:25;98118.47;;;12.60;71.34
64876;BME280;51369;49.862;9.908;2023-11-21T13:12:51;98112.34;;;12.56;70.90
64876;BME280;51369;49.862;9.908;2023-11-21T13:15:17;98112.50;;;12.53;71.99
64876;BME280;51369;49.862;9.908;2023-11-21T13:17:45;98118.97;;;12.51;72.21
64876;BME280;51369;49.862;9.908;2023-11-21T13:20:11;98111.00;;;12.48;72.26
64876;BME280;51369;49.862;9.908;2023-11-21T13:22:52;98119.56;;;12.40;73.12
64876;BME280;51369;49.862;9.908;2023-11-21T13:25:25;98115.34;;;12.34;73.76
64876;BME280;51369;49.862;9.908;2023-11-21T13:27:55;98126.59;;;12.27;74.79